Terminal Aerodrome Forecast
Issued by NWS

Home | Current Version | Previous Version | Graphics & Text | Print | Product List | Glossary On
Versions: 1 2 3 4 5 6 7 8 9 10 11 12 13 14 15 16 17 18
000
FTUS43 KMPX 151700
TAFRWF
TAF
KRWF 151727Z 1518/1618 15005KT P6SM SCT150
     FM152200 15013KT P6SM BKN150
     FM160000 13014G20KT P6SM OVC100
     FM161100 13018G24KT P6SM VCSH SCT030 OVC060
     FM161500 07012G18KT P6SM -RA OVC025=

USA.gov is the U.S. government's official web portal to all federal, state and local government web resources and services.